Portada
METAR-TAF:

METAR-TAF

Aeropuertos :

Nuakchot, Mauritania

Aeropuerto Internacional de Nuakchot

latitud: 18-18-36N, longitud: 015-58-11W, altitud: 3 m

Observación

El informe se hizo hace 34 minutos, a las 06:30 UTC
Viento 9 kt del norte-noroeste
Temperatura 25°C
Humedad 79%
Presión 1011 hPa
Visibilidad: 8000 m

METAR: GQNO 240630Z 33009KT 8000 NSC 25/21 Q1011 NOSIG

Hora: 07:04 (07:04 UTC)

Pronóstico

El informe se hizo hace 14 horas y 4 minutos, a las 17:00 UTC
Pronóstico válido del 23 a las 18 UTC al 24 a las 24 UTC
Viento 15 kt del norte-noroeste
Visibilidad: 6000 m
Escasas nubes a una altura de 2000 ft
Evolucionando progresivamente
del 23 a las 19 UTC al 23 a las 21 UTC

TAF: GQNO 231700Z 2318/2424 33015KT 6000 FEW020 BECMG 2319/2321 NSC

Observaciones y pronósticos meteorológicos de más de 4000 aeropuertos (mensajes METAR y TAF).

Los puntos amarillos y rojos representan las estaciones disponibles.

Ponga el ratón en el punto deseado para ver el nombre de la estación.

Haga clic para ver las observaciones y los pronósticos meteorológicos.

Para cambiar el mapa : haga clic en los botones verdes con una cruz de color negro para hacer un zoom, en el botón verde con un guión para alejar o en las flechas verdes para mapas adyacentes.


METAR-TAF: